Terminal Aerodrome Forecast
Issued by NWS

Home | Current Version | Previous Version | Text Only | Print | Product List | Glossary On
Versions: 1 2 3 4 5 6 7 8 9
487
FTUS46 KSGX 232320
TAFONT
TAF
KONT 232320Z 2400/2506 25012G18KT P6SM SCT250
     FM240300 25011KT P6SM SCT250
     FM240500 26006KT P6SM FEW015 SCT250
     FM241200 25005KT P6SM BKN012
     FM241700 26007KT P6SM SCT020
     FM241900 27012G20KT P6SM FEW020
     FM250500 26006KT P6SM SCT250=

USA.gov is the U.S. government's official web portal to all federal, state and local government web resources and services.